Time;durP1;ratioP1;P1;durP2;ratioP2;P2;SDS_P1;SDS_P2;PMS_P1;PMS_P2;Temp;Humidity;BMP_temperature;BMP_pressure;BME280_temperature;BME280_humidity;BME280_pressure;Samples;Min_cycle;Max_cycle;Signal;HPM_P1;HPM_P2
2023/10/01 00:00:11;;;;;;;15.15;7.00;;;;;;;;;;4993295;28;25087;-72
2023/10/01 00:02:37;;;;;;;14.10;6.28;;;;;;;;;;4991092;28;25197;-71
2023/10/01 00:05:05;;;;;;;14.77;6.85;;;;;;;;;;4986438;28;25069;-70
2023/10/01 00:07:31;;;;;;;17.38;6.72;;;;;;;;;;4983588;28;25079;-73
2023/10/01 00:10:01;;;;;;;11.52;6.35;;;;;;;;;;4988481;28;25079;-73
2023/10/01 00:12:27;;;;;;;16.92;6.70;;;;;;;;;;4987806;28;25107;-70
2023/10/01 00:14:53;;;;;;;18.08;6.78;;;;;;;;;;4985512;28;25159;-70
2023/10/01 00:17:22;;;;;;;14.98;6.07;;;;;;;;;;4987934;28;25068;-70
2023/10/01 00:19:48;;;;;;;14.35;6.85;;;;;;;;;;4970692;28;25079;-74
2023/10/01 00:22:14;;;;;;;12.00;6.00;;;;;;;;;;4987881;28;25070;-73
2023/10/01 00:24:43;;;;;;;14.30;6.07;;;;;;;;;;4987932;28;25149;-70
2023/10/01 00:27:09;;;;;;;11.50;5.97;;;;;;;;;;4986375;28;25080;-70
2023/10/01 00:29:35;;;;;;;13.90;5.38;;;;;;;;;;4986881;28;25060;-72
2023/10/01 00:32:01;;;;;;;13.98;6.45;;;;;;;;;;4988514;28;25149;-73
2023/10/01 00:34:27;;;;;;;12.30;5.07;;;;;;;;;;4984650;28;25061;-73
2023/10/01 00:36:53;;;;;;;14.75;5.82;;;;;;;;;;4991197;28;25059;-72
2023/10/01 00:39:19;;;;;;;13.30;5.95;;;;;;;;;;4971014;28;25063;-73
2023/10/01 00:41:45;;;;;;;15.27;5.15;;;;;;;;;;4988484;28;25068;-74
2023/10/01 00:44:13;;;;;;;15.15;6.15;;;;;;;;;;4992601;28;25135;-72
2023/10/01 00:46:39;;;;;;;16.92;6.10;;;;;;;;;;4990228;28;25222;-72
2023/10/01 00:49:06;;;;;;;14.40;5.10;;;;;;;;;;4987800;28;25054;-72
2023/10/01 00:51:32;;;;;;;20.05;6.05;;;;;;;;;;4991186;28;25098;-72
2023/10/01 00:54:02;;;;;;;22.92;6.18;;;;;;;;;;4989458;28;25058;-72
2023/10/01 00:56:28;;;;;;;17.80;5.70;;;;;;;;;;4971201;28;25073;-73
2023/10/01 00:58:54;;;;;;;17.70;6.25;;;;;;;;;;4991688;28;25061;-70
2023/10/01 01:01:23;;;;;;;19.40;5.60;;;;;;;;;;4989584;28;25057;-73
2023/10/01 01:03:52;;;;;;;19.27;6.63;;;;;;;;;;4995393;28;25081;-72
2023/10/01 01:06:30;;;;;;;13.50;5.80;;;;;;;;;;4993218;28;25063;-73
2023/10/01 01:08:56;;;;;;;14.90;5.63;;;;;;;;;;4992722;28;25058;-74
2023/10/01 01:11:22;;;;;;;14.25;6.03;;;;;;;;;;4985664;28;25051;-74
2023/10/01 01:13:51;;;;;;;17.17;6.13;;;;;;;;;;4972943;28;25087;-73
2023/10/01 01:16:21;;;;;;;17.40;5.97;;;;;;;;;;4990828;28;25063;-73
2023/10/01 01:18:51;;;;;;;14.85;6.20;;;;;;;;;;4990902;28;25073;-73
2023/10/01 01:21:17;;;;;;;18.75;6.57;;;;;;;;;;4967950;28;25081;-74
2023/10/01 01:23:46;;;;;;;15.35;6.38;;;;;;;;;;4989441;28;25087;-72
2023/10/01 01:26:20;;;;;;;14.82;6.88;;;;;;;;;;4981671;28;25043;-73
2023/10/01 01:28:46;;;;;;;15.88;6.88;;;;;;;;;;4977662;28;25079;-72
2023/10/01 01:31:13;;;;;;;18.30;6.60;;;;;;;;;;4981709;28;25110;-73
2023/10/01 01:33:52;;;;;;;20.08;6.90;;;;;;;;;;4987269;28;25074;-73
2023/10/01 01:36:19;;;;;;;13.98;6.07;;;;;;;;;;4988433;28;25058;-78
2023/10/01 01:39:09;;;;;;;16.02;7.13;;;;;;;;;;4984184;28;25067;-73
2023/10/01 01:41:42;;;;;;;15.63;6.93;;;;;;;;;;4987003;28;25106;-73
2023/10/01 01:44:08;;;;;;;;;;;;;;;;;;4973069;28;25138;-73
2023/10/01 01:46:34;;;;;;;15.30;6.75;;;;;;;;;;4987889;28;25074;-72
2023/10/01 01:49:00;;;;;;;18.80;7.35;;;;;;;;;;4988604;28;25138;-71
2023/10/01 01:51:29;;;;;;;18.83;6.68;;;;;;;;;;4986183;28;25151;-73
2023/10/01 01:53:56;;;;;;;14.13;6.65;;;;;;;;;;4967769;28;25104;-75
2023/10/01 01:56:22;;;;;;;22.15;7.50;;;;;;;;;;4988045;28;25084;-72
2023/10/01 01:58:49;;;;;;;18.95;6.00;;;;;;;;;;4968591;28;25164;-74
2023/10/01 02:01:23;;;;;;;16.45;6.82;;;;;;;;;;4987275;28;25110;-72
2023/10/01 02:03:51;;;;;;;16.63;6.32;;;;;;;;;;4986644;28;25120;-76
2023/10/01 02:06:27;;;;;;;19.27;6.88;;;;;;;;;;4965682;28;25054;-73
2023/10/01 02:09:00;;;;;;;16.23;6.72;;;;;;;;;;4983859;28;25064;-72
2023/10/01 02:11:32;;;;;;;15.43;5.85;;;;;;;;;;4961782;28;25249;-72
2023/10/01 02:13:59;;;;;;;18.52;6.32;;;;;;;;;;4986943;28;25077;-73
2023/10/01 02:21:44;;;;;;;14.32;6.75;;;;;;;;;;4998229;28;25087;-72
2023/10/01 02:24:14;;;;;;;17.45;6.22;;;;;;;;;;4993997;28;25095;-73
2023/10/01 02:26:46;;;;;;;15.95;6.43;;;;;;;;;;4984671;28;25079;-72
2023/10/01 02:29:13;;;;;;;13.77;5.82;;;;;;;;;;4975253;28;25069;-72
2023/10/01 02:31:39;;;;;;;18.23;6.50;;;;;;;;;;4982621;28;25073;-71
2023/10/01 02:34:11;;;;;;;17.20;5.97;;;;;;;;;;5003238;28;25060;-72
2023/10/01 02:36:42;;;;;;;14.40;6.15;;;;;;;;;;5000208;28;25066;-73
2023/10/01 02:39:19;;;;;;;12.13;6.25;;;;;;;;;;4994513;28;25053;-71
2023/10/01 02:42:03;;;;;;;14.07;5.70;;;;;;;;;;4981038;28;25056;-73
2023/10/01 02:44:29;;;;;;;14.60;6.57;;;;;;;;;;4984796;28;25168;-74
2023/10/01 02:47:01;;;;;;;16.45;5.50;;;;;;;;;;4982107;28;25065;-72
2023/10/01 02:49:27;;;;;;;15.85;5.88;;;;;;;;;;4967242;28;25142;-73
2023/10/01 02:51:59;;;;;;;15.95;6.07;;;;;;;;;;4959004;28;25145;-72
2023/10/01 02:54:26;;;;;;;17.52;6.20;;;;;;;;;;4971811;28;25067;-71
2023/10/01 02:56:52;;;;;;;17.45;6.00;;;;;;;;;;4976669;28;25051;-73
2023/10/01 02:59:19;;;;;;;16.13;6.35;;;;;;;;;;4980462;28;25119;-74
2023/10/01 03:01:49;;;;;;;13.15;5.93;;;;;;;;;;4976286;28;25087;-74
2023/10/01 03:04:16;;;;;;;15.18;6.18;;;;;;;;;;4973469;28;25083;-73
2023/10/01 03:06:47;;;;;;;14.85;6.25;;;;;;;;;;4981616;28;25050;-71
2023/10/01 03:09:22;;;;;;;15.77;6.43;;;;;;;;;;4992662;28;25093;-74
2023/10/01 03:11:53;;;;;;;14.82;5.38;;;;;;;;;;4992370;28;25070;-71
2023/10/01 03:14:26;;;;;;;13.75;5.93;;;;;;;;;;4975271;28;25056;-71
2023/10/01 03:16:53;;;;;;;11.85;5.65;;;;;;;;;;4986464;28;25074;-70
2023/10/01 03:19:25;;;;;;;14.75;5.38;;;;;;;;;;4996711;28;25138;-71
2023/10/01 03:24:32;;;;;;;16.95;6.35;;;;;;;;;;4976753;28;25068;-71
2023/10/01 03:27:12;;;;;;;12.52;6.43;;;;;;;;;;4988964;28;25077;-71
2023/10/01 03:29:42;;;;;;;16.40;5.78;;;;;;;;;;4990714;28;25084;-72
2023/10/01 03:32:26;;;;;;;18.48;5.28;;;;;;;;;;4986278;28;25054;-71
2023/10/01 03:34:53;;;;;;;16.70;5.88;;;;;;;;;;4985119;28;25063;-74
2023/10/01 03:37:19;;;;;;;16.38;6.35;;;;;;;;;;4986130;28;25067;-72
2023/10/01 03:39:52;;;;;;;14.20;5.93;;;;;;;;;;4993697;28;25063;-72
2023/10/01 03:42:18;;;;;;;15.07;5.97;;;;;;;;;;4978283;28;25164;-71
2023/10/01 03:47:29;;;;;;;16.00;6.07;;;;;;;;;;4986159;28;25152;-71
2023/10/01 03:49:56;;;;;;;15.90;6.00;;;;;;;;;;4992106;28;25073;-72
2023/10/01 03:52:22;;;;;;;14.13;6.40;;;;;;;;;;5002516;28;25074;-72
2023/10/01 03:54:52;;;;;;;14.05;6.18;;;;;;;;;;5001526;28;25080;-70
2023/10/01 03:57:18;;;;;;;14.15;5.97;;;;;;;;;;4992661;28;25068;-72
2023/10/01 03:59:54;;;;;;;15.75;7.22;;;;;;;;;;4991342;28;25168;-74
2023/10/01 04:02:46;;;;;;;14.25;7.18;;;;;;;;;;4977774;28;25072;-71
2023/10/01 04:05:22;;;;;;;16.98;6.35;;;;;;;;;;4952762;28;25049;-72
2023/10/01 04:07:48;;;;;;;13.90;6.00;;;;;;;;;;4979469;28;25070;-73
2023/10/01 04:13:11;;;;;;;18.65;6.85;;;;;;;;;;4977447;28;25176;-72
2023/10/01 04:15:41;;;;;;;15.55;6.53;;;;;;;;;;4977021;28;25069;-71
2023/10/01 04:18:28;;;;;;;11.63;5.68;;;;;;;;;;4978769;28;25103;-73
2023/10/01 04:23:29;;;;;;;16.77;6.47;;;;;;;;;;4979751;28;25131;-71
2023/10/01 04:26:06;;;;;;;14.50;6.07;;;;;;;;;;4977860;28;25052;-71
2023/10/01 04:28:43;;;;;;;14.95;6.30;;;;;;;;;;4978984;28;25091;-72
2023/10/01 04:31:09;;;;;;;14.30;6.57;;;;;;;;;;4986680;28;25117;-70
2023/10/01 04:33:36;;;;;;;16.77;5.88;;;;;;;;;;4992286;28;25310;-71
2023/10/01 04:36:04;;;;;;;13.10;6.93;;;;;;;;;;4977859;28;25074;-74
2023/10/01 04:38:32;;;;;;;11.85;6.00;;;;;;;;;;4985246;28;25062;-69
2023/10/01 04:40:58;;;;;;;16.85;5.90;;;;;;;;;;4963074;28;25099;-73
2023/10/01 04:43:26;;;;;;;18.30;7.32;;;;;;;;;;4990550;28;25095;-71
2023/10/01 04:45:52;;;;;;;13.00;6.00;;;;;;;;;;4984971;28;25109;-71
2023/10/01 04:48:24;;;;;;;11.90;5.55;;;;;;;;;;4979619;28;25144;-70
2023/10/01 04:50:54;;;;;;;12.15;6.28;;;;;;;;;;4982084;28;25153;-73
2023/10/01 04:53:21;;;;;;;15.30;6.30;;;;;;;;;;4975952;28;25070;-73
2023/10/01 04:56:00;;;;;;;15.52;6.18;;;;;;;;;;4983904;28;25139;-73
2023/10/01 04:58:26;;;;;;;17.23;7.03;;;;;;;;;;4991783;28;25055;-73
2023/10/01 05:00:54;;;;;;;13.70;6.82;;;;;;;;;;4995716;28;25075;-73
2023/10/01 05:03:36;;;;;;;14.80;7.13;;;;;;;;;;4992270;28;25060;-73
2023/10/01 05:06:02;;;;;;;16.50;7.07;;;;;;;;;;4978862;28;25067;-71
2023/10/01 05:08:38;;;;;;;14.07;6.13;;;;;;;;;;4985756;28;25073;-71
2023/10/01 05:11:04;;;;;;;18.92;7.15;;;;;;;;;;4991757;28;25068;-72
2023/10/01 05:13:31;;;;;;;16.05;6.95;;;;;;;;;;4989616;28;25057;-73
2023/10/01 05:15:57;;;;;;;18.30;7.55;;;;;;;;;;4990944;28;25141;-71
2023/10/01 05:18:26;;;;;;;15.57;7.45;;;;;;;;;;4989049;28;25053;-69
2023/10/01 05:20:58;;;;;;;15.65;6.82;;;;;;;;;;4982121;28;25075;-69
2023/10/01 05:23:24;;;;;;;17.05;6.90;;;;;;;;;;4985391;28;25087;-73
2023/10/01 05:25:50;;;;;;;14.27;6.25;;;;;;;;;;4988734;28;25066;-73
2023/10/01 05:28:41;;;;;;;15.48;7.40;;;;;;;;;;4997528;28;25052;-72
2023/10/01 05:31:08;;;;;;;16.10;7.65;;;;;;;;;;4990574;28;25082;-71
2023/10/01 05:33:34;;;;;;;16.33;7.27;;;;;;;;;;4993066;28;25114;-73
2023/10/01 05:36:04;;;;;;;17.95;7.07;;;;;;;;;;4971232;28;25109;-70
2023/10/01 05:38:33;;;;;;;12.88;6.50;;;;;;;;;;4985179;28;25178;-71
2023/10/01 05:41:03;;;;;;;18.75;7.85;;;;;;;;;;4985623;28;25053;-68
2023/10/01 05:43:35;;;;;;;20.40;7.22;;;;;;;;;;4992023;28;25078;-72
2023/10/01 05:46:01;;;;;;;14.60;6.72;;;;;;;;;;4977900;28;25064;-70
2023/10/01 05:48:29;;;;;;;22.40;7.70;;;;;;;;;;4977909;28;25072;-73
2023/10/01 05:50:58;;;;;;;15.40;7.47;;;;;;;;;;4991634;28;25116;-73
2023/10/01 05:53:24;;;;;;;20.52;8.70;;;;;;;;;;4999977;28;25059;-72
2023/10/01 05:55:50;;;;;;;16.95;7.80;;;;;;;;;;4997593;28;25069;-73
2023/10/01 05:58:17;;;;;;;18.10;7.60;;;;;;;;;;4974198;28;25076;-73
2023/10/01 06:00:45;;;;;;;16.85;7.53;;;;;;;;;;4994424;28;25079;-73
2023/10/01 06:03:18;;;;;;;14.55;7.13;;;;;;;;;;4985841;28;25059;-73
2023/10/01 06:05:50;;;;;;;16.83;7.20;;;;;;;;;;4981913;28;25078;-72
2023/10/01 06:08:24;;;;;;;18.75;7.75;;;;;;;;;;4997221;28;25077;-69
2023/10/01 06:11:09;;;;;;;17.27;7.55;;;;;;;;;;4971259;28;25068;-71
2023/10/01 06:13:37;;;;;;;16.65;7.97;;;;;;;;;;4992984;28;25055;-69
2023/10/01 06:16:16;;;;;;;16.40;7.35;;;;;;;;;;4982793;28;25219;-71
2023/10/01 06:18:52;;;;;;;20.15;8.35;;;;;;;;;;4995754;28;25048;-72
2023/10/01 06:21:19;;;;;;;12.95;7.45;;;;;;;;;;4987561;28;25069;-70
2023/10/01 06:23:51;;;;;;;19.45;8.15;;;;;;;;;;4966090;28;25078;-72
2023/10/01 06:26:19;;;;;;;19.73;8.00;;;;;;;;;;4979252;28;25106;-71
2023/10/01 06:28:45;;;;;;;18.83;7.35;;;;;;;;;;4981791;28;25069;-74
2023/10/01 06:31:11;;;;;;;16.00;7.88;;;;;;;;;;4991789;28;25086;-72
2023/10/01 06:33:38;;;;;;;21.15;7.93;;;;;;;;;;4983938;28;25052;-72
2023/10/01 06:36:21;;;;;;;18.38;7.35;;;;;;;;;;4991396;28;25158;-71
2023/10/01 06:38:47;;;;;;;14.30;7.88;;;;;;;;;;4996196;28;25104;-72
2023/10/01 06:41:18;;;;;;;17.13;7.53;;;;;;;;;;4985179;28;25101;-73
2023/10/01 06:43:48;;;;;;;19.00;8.00;;;;;;;;;;4991777;28;25144;-71
2023/10/01 06:46:34;;;;;;;15.40;7.88;;;;;;;;;;4999687;28;25097;-72
2023/10/01 06:49:03;;;;;;;14.98;7.65;;;;;;;;;;4989954;28;25083;-71
2023/10/01 06:51:37;;;;;;;16.35;7.55;;;;;;;;;;4984983;28;25047;-72
2023/10/01 06:54:07;;;;;;;17.77;8.45;;;;;;;;;;4992019;28;25055;-73
2023/10/01 06:56:33;;;;;;;16.98;8.68;;;;;;;;;;4996238;28;25164;-73
2023/10/01 07:01:34;;;;;;;17.25;7.40;;;;;;;;;;4992343;28;25065;-72
2023/10/01 07:04:05;;;;;;;18.52;8.57;;;;;;;;;;4989270;28;25063;-72
2023/10/01 07:06:34;;;;;;;16.20;8.52;;;;;;;;;;4992189;28;25075;-71
2023/10/01 07:09:00;;;;;;;18.35;8.25;;;;;;;;;;4996084;28;25083;-72
2023/10/01 07:11:28;;;;;;;17.70;7.97;;;;;;;;;;4986388;28;25059;-74
2023/10/01 07:13:55;;;;;;;16.35;7.90;;;;;;;;;;4984347;28;25088;-70
2023/10/01 07:16:39;;;;;;;25.25;9.60;;;;;;;;;;4989499;28;25108;-73
2023/10/01 07:19:11;;;;;;;17.55;8.10;;;;;;;;;;4995901;28;25075;-71
2023/10/01 07:21:37;;;;;;;20.10;7.60;;;;;;;;;;5003632;28;25066;-72
2023/10/01 07:24:04;;;;;;;25.70;9.10;;;;;;;;;;4998330;28;25060;-72
2023/10/01 07:26:30;;;;;;;18.08;8.27;;;;;;;;;;5001444;28;25061;-72
2023/10/01 07:28:56;;;;;;;19.48;8.98;;;;;;;;;;5000930;28;25061;-71
2023/10/01 07:31:24;;;;;;;19.83;9.02;;;;;;;;;;4994606;28;25139;-72
2023/10/01 07:33:53;;;;;;;21.60;9.63;;;;;;;;;;4998945;28;25070;-75
2023/10/01 07:36:19;;;;;;;19.45;8.40;;;;;;;;;;4988653;28;25072;-75
2023/10/01 07:38:56;;;;;;;17.73;8.40;;;;;;;;;;4980022;28;25087;-72
2023/10/01 07:41:27;;;;;;;25.27;10.57;;;;;;;;;;4976377;28;25062;-74
2023/10/01 07:43:56;;;;;;;16.63;8.43;;;;;;;;;;4993756;28;25079;-73
2023/10/01 07:46:22;;;;;;;18.33;9.75;;;;;;;;;;4993910;28;25058;-71
2023/10/01 07:48:51;;;;;;;22.90;9.52;;;;;;;;;;4993788;28;25081;-74
2023/10/01 07:51:26;;;;;;;18.70;8.73;;;;;;;;;;4986008;28;25058;-73
2023/10/01 07:53:52;;;;;;;20.52;9.50;;;;;;;;;;4972131;28;25058;-70
2023/10/01 07:56:21;;;;;;;25.67;9.88;;;;;;;;;;4973891;28;25054;-72
2023/10/01 07:58:47;;;;;;;18.55;8.95;;;;;;;;;;4985886;28;25070;-72
2023/10/01 08:04:06;;;;;;;19.88;9.23;;;;;;;;;;4983537;28;25127;-70
2023/10/01 08:06:34;;;;;;;18.50;8.45;;;;;;;;;;4985984;28;25093;-69
2023/10/01 08:09:00;;;;;;;22.20;9.10;;;;;;;;;;4988824;28;25106;-69
2023/10/01 08:14:12;;;;;;;23.40;10.70;;;;;;;;;;4984314;28;25060;-70
2023/10/01 08:16:52;;;;;;;20.83;9.98;;;;;;;;;;4980668;28;25044;-71
2023/10/01 08:19:22;;;;;;;22.52;9.85;;;;;;;;;;4981983;28;25091;-72
2023/10/01 08:21:52;;;;;;;22.60;9.10;;;;;;;;;;4983869;28;25081;-71
2023/10/01 08:24:18;;;;;;;21.92;10.07;;;;;;;;;;4980221;28;25074;-75
2023/10/01 08:27:03;;;;;;;17.98;9.13;;;;;;;;;;4980572;28;25054;-70
2023/10/01 08:29:59;;;;;;;21.17;9.32;;;;;;;;;;4985086;28;25081;-70
2023/10/01 08:32:22;;;;;;;21.15;9.68;;;;;;;;;;4988364;28;25157;-71
2023/10/01 08:35:06;;;;;;;24.05;10.00;;;;;;;;;;4978643;28;25188;-73
2023/10/01 08:37:49;;;;;;;21.33;8.30;;;;;;;;;;4984953;28;25073;-78
2023/10/01 08:40:19;;;;;;;18.83;8.73;;;;;;;;;;4991287;28;25075;-77
2023/10/01 08:42:48;;;;;;;20.55;10.10;;;;;;;;;;4984054;28;25070;-74
2023/10/01 08:45:21;;;;;;;20.70;11.18;;;;;;;;;;4968454;28;25122;-73
2023/10/01 08:47:48;;;;;;;30.13;11.90;;;;;;;;;;4978111;28;25076;-75
2023/10/01 08:50:27;;;;;;;24.23;9.30;;;;;;;;;;4971875;28;25094;-76
2023/10/01 08:52:57;;;;;;;22.48;10.07;;;;;;;;;;4973952;28;25087;-72
2023/10/01 08:55:23;;;;;;;22.25;10.35;;;;;;;;;;4994958;28;25056;-73
2023/10/01 08:57:53;;;;;;;29.20;10.65;;;;;;;;;;4996746;28;25061;-74
2023/10/01 09:00:20;;;;;;;26.25;10.45;;;;;;;;;;4992886;28;25120;-71
2023/10/01 09:02:50;;;;;;;23.48;11.40;;;;;;;;;;4998253;28;25073;-70
2023/10/01 09:05:26;;;;;;;26.35;11.35;;;;;;;;;;4991489;28;25060;-73
2023/10/01 09:08:15;;;;;;;24.00;11.60;;;;;;;;;;4988224;28;25063;-71
2023/10/01 09:10:51;;;;;;;24.05;11.10;;;;;;;;;;4985512;28;25080;-74
2023/10/01 09:13:21;;;;;;;21.83;10.95;;;;;;;;;;4984116;28;25122;-72
2023/10/01 09:15:47;;;;;;;24.42;11.48;;;;;;;;;;4991661;28;25143;-74
2023/10/01 09:18:20;;;;;;;25.77;12.65;;;;;;;;;;4973562;28;25048;-76
2023/10/01 09:21:06;;;;;;;28.08;12.43;;;;;;;;;;4990873;28;25054;-71
2023/10/01 09:23:54;;;;;;;26.17;11.30;;;;;;;;;;4972887;28;25069;-75
2023/10/01 09:26:53;;;;;;;31.65;12.45;;;;;;;;;;4990669;28;25051;-75
2023/10/01 09:29:23;;;;;;;22.63;10.98;;;;;;;;;;4955471;28;25092;-79
2023/10/01 09:31:53;;;;;;;26.63;12.10;;;;;;;;;;4991561;28;25080;-75
2023/10/01 09:34:33;;;;;;;26.83;12.20;;;;;;;;;;4985205;28;25069;-77
2023/10/01 09:37:03;;;;;;;24.45;11.48;;;;;;;;;;4983803;28;25127;-72
2023/10/01 09:39:38;;;;;;;20.40;10.45;;;;;;;;;;4981164;28;25071;-73
2023/10/01 09:42:24;;;;;;;27.25;10.52;;;;;;;;;;4960898;28;25084;-74
2023/10/01 09:44:52;;;;;;;24.30;11.27;;;;;;;;;;4979058;28;25092;-71
2023/10/01 09:47:18;;;;;;;21.27;10.23;;;;;;;;;;4981412;28;25043;-72
2023/10/01 09:49:47;;;;;;;25.35;10.52;;;;;;;;;;4973351;28;25098;-71
2023/10/01 09:52:27;;;;;;;22.88;10.93;;;;;;;;;;4993507;28;25144;-73
2023/10/01 09:55:03;;;;;;;24.13;10.30;;;;;;;;;;4991604;28;25064;-73
2023/10/01 09:57:34;;;;;;;24.83;11.80;;;;;;;;;;5000218;28;25048;-73
2023/10/01 10:02:57;;;;;;;23.50;10.63;;;;;;;;;;4967362;28;25132;-72
2023/10/01 10:05:28;;;;;;;25.35;11.40;;;;;;;;;;4992928;28;25076;-73
2023/10/01 10:07:55;;;;;;;20.27;10.07;;;;;;;;;;4978738;28;25136;-71
2023/10/01 10:10:24;;;;;;;24.67;11.07;;;;;;;;;;4982520;28;25096;-72
2023/10/01 10:12:59;;;;;;;25.35;10.20;;;;;;;;;;4960937;28;25070;-74
2023/10/01 10:15:46;;;;;;;29.15;10.70;;;;;;;;;;4987197;28;25179;-75
2023/10/01 10:18:15;;;;;;;22.30;10.32;;;;;;;;;;4978092;28;25358;-70
2023/10/01 10:20:58;;;;;;;17.92;8.00;;;;;;;;;;4979083;28;25161;-70
2023/10/01 10:23:29;;;;;;;27.67;8.93;;;;;;;;;;4982909;28;25093;-69
2023/10/01 10:26:12;;;;;;;18.93;8.73;;;;;;;;;;4978957;28;25056;-71
2023/10/01 10:28:52;;;;;;;21.40;8.55;;;;;;;;;;4981875;28;25090;-72
2023/10/01 10:31:33;;;;;;;14.75;7.20;;;;;;;;;;4979291;28;25058;-70
2023/10/01 10:34:26;;;;;;;20.05;7.72;;;;;;;;;;4983471;28;25080;-71
2023/10/01 10:36:57;;;;;;;18.33;8.02;;;;;;;;;;4974647;28;25075;-72
2023/10/01 10:39:42;;;;;;;15.82;7.25;;;;;;;;;;4985220;28;25146;-69
2023/10/01 10:42:33;;;;;;;20.13;8.43;;;;;;;;;;4980212;28;25097;-71
2023/10/01 10:45:20;;;;;;;19.45;8.20;;;;;;;;;;4963253;28;25056;-69
2023/10/01 10:47:58;;;;;;;19.33;8.18;;;;;;;;;;4972128;28;25070;-74
2023/10/01 10:50:44;;;;;;;21.10;8.15;;;;;;;;;;4970203;28;25071;-70
2023/10/01 10:53:17;;;;;;;16.67;8.48;;;;;;;;;;4979736;28;25143;-70
2023/10/01 10:56:07;;;;;;;16.88;8.20;;;;;;;;;;4967537;28;25059;-74
2023/10/01 10:58:40;;;;;;;16.92;7.65;;;;;;;;;;4982649;28;25080;-74
2023/10/01 11:01:15;;;;;;;18.65;7.10;;;;;;;;;;4983418;28;25061;-69
2023/10/01 11:03:45;;;;;;;18.92;7.70;;;;;;;;;;4975788;28;25059;-72
2023/10/01 11:06:17;;;;;;;19.17;7.30;;;;;;;;;;4965247;28;25102;-76
2023/10/01 11:08:50;;;;;;;16.25;6.95;;;;;;;;;;4979882;28;25123;-69
2023/10/01 11:11:39;;;;;;;15.35;6.88;;;;;;;;;;4984511;28;25111;-71
2023/10/01 11:14:12;;;;;;;15.98;6.65;;;;;;;;;;4962311;28;25065;-69
2023/10/01 11:16:44;;;;;;;17.27;7.32;;;;;;;;;;4979193;28;25130;-73
2023/10/01 11:19:13;;;;;;;15.13;6.15;;;;;;;;;;4980235;28;25154;-72
2023/10/01 11:21:56;;;;;;;16.27;7.55;;;;;;;;;;4986607;28;25088;-73
2023/10/01 11:24:29;;;;;;;15.45;7.18;;;;;;;;;;4983623;28;25093;-71
2023/10/01 11:27:47;;;;;;;14.20;7.10;;;;;;;;;;4986117;28;25056;-68
2023/10/01 11:30:16;;;;;;;18.33;6.93;;;;;;;;;;4958593;28;25053;-71
2023/10/01 11:35:33;;;;;;;18.15;8.20;;;;;;;;;;4984101;28;25058;-70
2023/10/01 11:38:00;;;;;;;16.13;6.95;;;;;;;;;;4981492;28;25145;-73
2023/10/01 11:41:06;;;;;;;18.40;7.50;;;;;;;;;;4973619;28;25095;-73
2023/10/01 11:43:23;;;;;;;19.27;7.28;;;;;;;;;;4992840;28;25065;-72
2023/10/01 11:45:49;;;;;;;16.35;7.45;;;;;;;;;;4984246;28;25060;-73
2023/10/01 11:48:21;;;;;;;19.05;7.82;;;;;;;;;;4990379;28;25087;-75
2023/10/01 11:50:50;;;;;;;;;;;;;;;;;;4982341;28;25046;-73
2023/10/01 11:53:26;;;;;;;12.38;6.28;;;;;;;;;;4970665;28;25067;-73
2023/10/01 11:55:54;;;;;;;14.65;7.18;;;;;;;;;;4987519;28;25064;-72
2023/10/01 11:58:25;;;;;;;14.52;7.22;;;;;;;;;;4978799;28;25068;-76
2023/10/01 12:00:59;;;;;;;14.00;7.07;;;;;;;;;;4994708;28;25060;-73
2023/10/01 12:03:25;;;;;;;16.95;7.40;;;;;;;;;;5004845;28;25054;-72
2023/10/01 12:05:56;;;;;;;16.95;7.68;;;;;;;;;;5000096;28;25123;-72
2023/10/01 12:08:34;;;;;;;14.93;7.57;;;;;;;;;;4997607;28;25112;-73
2023/10/01 12:11:26;;;;;;;17.67;8.02;;;;;;;;;;4995559;28;25047;-71
2023/10/01 12:14:04;;;;;;;18.65;7.75;;;;;;;;;;4995556;28;25070;-70
2023/10/01 12:16:30;;;;;;;19.98;8.25;;;;;;;;;;4981799;28;25115;-76
2023/10/01 12:19:22;;;;;;;17.77;8.57;;;;;;;;;;4991333;28;25096;-70
2023/10/01 12:21:42;;;;;;;18.05;7.63;;;;;;;;;;4974557;28;25170;-71
2023/10/01 12:24:12;;;;;;;17.52;7.53;;;;;;;;;;4974499;28;25069;-70
2023/10/01 12:26:39;;;;;;;15.73;7.22;;;;;;;;;;4978338;28;25277;-70
2023/10/01 12:29:14;;;;;;;17.75;8.30;;;;;;;;;;4983287;28;25080;-74
2023/10/01 12:31:40;;;;;;;18.13;7.70;;;;;;;;;;4994340;28;25101;-72
2023/10/01 12:34:07;;;;;;;19.10;8.20;;;;;;;;;;5002062;28;25062;-71
2023/10/01 12:36:42;;;;;;;19.35;7.90;;;;;;;;;;4982515;28;25086;-70
2023/10/01 12:41:47;;;;;;;17.88;8.93;;;;;;;;;;4978604;28;25062;-72
2023/10/01 12:44:28;;;;;;;17.20;7.95;;;;;;;;;;4989676;28;25116;-70
2023/10/01 12:46:54;;;;;;;21.30;9.15;;;;;;;;;;4977481;28;25076;-73
2023/10/01 12:49:20;;;;;;;17.95;8.27;;;;;;;;;;4985026;28;25070;-72
2023/10/01 12:51:48;;;;;;;19.02;8.63;;;;;;;;;;4980858;28;25093;-73
2023/10/01 12:54:27;;;;;;;19.27;8.75;;;;;;;;;;4979811;28;25163;-71
2023/10/01 12:57:02;;;;;;;17.00;8.23;;;;;;;;;;4983212;28;25081;-73
2023/10/01 12:59:44;;;;;;;18.88;8.60;;;;;;;;;;4973990;28;25068;-74
2023/10/01 13:02:42;;;;;;;22.92;9.13;;;;;;;;;;4969829;28;25062;-70
2023/10/01 13:05:21;;;;;;;18.98;9.25;;;;;;;;;;4987431;28;25069;-71
2023/10/01 13:07:48;;;;;;;17.40;8.02;;;;;;;;;;4983610;28;25069;-73
2023/10/01 13:10:16;;;;;;;19.42;8.80;;;;;;;;;;4986025;28;25046;-73
2023/10/01 13:12:59;;;;;;;20.33;8.55;;;;;;;;;;4973483;28;25147;-77
2023/10/01 13:15:33;;;;;;;14.70;7.18;;;;;;;;;;4979694;28;25055;-72
2023/10/01 13:18:11;;;;;;;17.85;9.05;;;;;;;;;;4970377;28;25140;-74
2023/10/01 13:20:59;;;;;;;17.65;8.07;;;;;;;;;;4984494;28;25063;-74
2023/10/01 13:23:25;;;;;;;17.80;8.45;;;;;;;;;;4990394;28;25103;-73
2023/10/01 13:26:38;;;;;;;18.35;8.10;;;;;;;;;;4981228;28;25070;-72
2023/10/01 13:28:50;;;;;;;20.63;9.63;;;;;;;;;;4985176;28;25079;-72
2023/10/01 14:09:52;;;;;;;17.38;7.63;;;;;;;;;;4981565;28;25178;-72
2023/10/01 14:15:05;;;;;;;17.92;7.70;;;;;;;;;;4979445;28;25053;-73
2023/10/01 14:17:32;;;;;;;16.50;8.40;;;;;;;;;;4970053;28;25075;-74
2023/10/01 14:19:58;;;;;;;21.88;8.48;;;;;;;;;;4998783;28;25070;-73
2023/10/01 14:22:24;;;;;;;23.85;9.60;;;;;;;;;;4979945;28;25060;-71
2023/10/01 14:24:52;;;;;;;19.67;9.18;;;;;;;;;;4979056;28;25103;-73
2023/10/01 14:27:24;;;;;;;19.73;9.10;;;;;;;;;;4985879;28;25048;-71
2023/10/01 14:30:01;;;;;;;21.88;9.70;;;;;;;;;;4983373;28;25129;-73
2023/10/01 14:32:34;;;;;;;18.73;8.27;;;;;;;;;;4977122;28;25062;-72
2023/10/01 14:35:01;;;;;;;20.10;8.48;;;;;;;;;;4992382;28;25062;-73
2023/10/01 14:37:32;;;;;;;18.10;8.93;;;;;;;;;;4982735;28;25101;-72
2023/10/01 14:40:13;;;;;;;17.55;8.40;;;;;;;;;;4990341;28;25053;-72
2023/10/01 14:42:39;;;;;;;19.65;8.27;;;;;;;;;;4999443;28;25057;-74
2023/10/01 14:45:05;;;;;;;18.42;8.73;;;;;;;;;;4994084;28;25059;-73
2023/10/01 14:47:32;;;;;;;17.40;8.02;;;;;;;;;;4991143;28;25069;-74
2023/10/01 14:49:57;;;;;;;23.85;9.48;;;;;;;;;;4992284;28;25047;-72
2023/10/01 14:52:23;;;;;;;21.20;8.88;;;;;;;;;;4995103;28;25090;-72
2023/10/01 14:54:49;;;;;;;21.45;8.80;;;;;;;;;;4975860;28;25127;-73
2023/10/01 14:57:16;;;;;;;22.23;9.93;;;;;;;;;;4991879;28;25069;-72
2023/10/01 14:59:43;;;;;;;24.23;9.50;;;;;;;;;;4987102;28;25058;-73
2023/10/01 15:02:15;;;;;;;18.42;8.90;;;;;;;;;;4982432;28;25150;-73
2023/10/01 15:04:42;;;;;;;18.10;8.07;;;;;;;;;;4979561;28;25063;-71
2023/10/01 15:07:08;;;;;;;21.92;9.30;;;;;;;;;;4988621;28;25058;-73
2023/10/01 15:09:38;;;;;;;17.02;8.35;;;;;;;;;;4980807;28;25069;-73
2023/10/01 15:12:04;;;;;;;18.58;8.77;;;;;;;;;;4981880;28;25143;-72
2023/10/01 15:14:34;;;;;;;17.77;8.48;;;;;;;;;;4972767;28;25053;-73
2023/10/01 15:17:02;;;;;;;20.67;9.07;;;;;;;;;;4970017;28;25134;-73
2023/10/01 15:19:30;;;;;;;24.52;8.60;;;;;;;;;;4977550;28;25134;-73
2023/10/01 15:22:08;;;;;;;19.35;8.52;;;;;;;;;;4990216;28;25093;-73
2023/10/01 15:24:35;;;;;;;19.35;8.82;;;;;;;;;;4988928;28;25164;-74
2023/10/01 15:27:04;;;;;;;18.85;8.75;;;;;;;;;;4961205;28;25132;-73
2023/10/01 15:29:33;;;;;;;18.38;8.18;;;;;;;;;;4984909;28;25072;-73
2023/10/01 15:31:59;;;;;;;18.05;8.38;;;;;;;;;;4978058;28;25117;-72
2023/10/01 15:34:27;;;;;;;18.52;8.63;;;;;;;;;;4987026;28;25116;-72
2023/10/01 15:37:02;;;;;;;19.73;8.45;;;;;;;;;;4968800;28;25071;-72
2023/10/01 15:42:22;;;;;;;20.80;8.40;;;;;;;;;;4977846;28;25062;-72
2023/10/01 15:44:50;;;;;;;16.85;7.95;;;;;;;;;;4977028;28;25101;-73
2023/10/01 15:47:31;;;;;;;19.25;9.18;;;;;;;;;;4974950;28;25075;-72
2023/10/01 15:50:13;;;;;;;16.17;7.35;;;;;;;;;;4984285;28;25112;-75
2023/10/01 15:52:46;;;;;;;19.67;8.77;;;;;;;;;;4970856;28;25063;-72
2023/10/01 15:55:13;;;;;;;17.75;9.18;;;;;;;;;;4979757;28;25066;-72
2023/10/01 15:57:39;;;;;;;16.38;8.20;;;;;;;;;;4971874;28;25061;-72
2023/10/01 16:02:50;;;;;;;21.65;9.70;;;;;;;;;;4993770;28;25079;-73
2023/10/01 16:05:17;;;;;;;22.35;8.63;;;;;;;;;;4972215;28;25131;-70
2023/10/01 16:07:44;;;;;;;17.25;7.80;;;;;;;;;;4985257;28;25048;-74
2023/10/01 16:10:11;;;;;;;16.50;7.93;;;;;;;;;;4963379;28;25066;-70
2023/10/01 16:12:39;;;;;;;21.00;8.93;;;;;;;;;;4979443;28;25074;-74